Pagrindinis puslapis
METAR-TAF:

METAR-TAF

Oro uostai :

Mary, Turkmėnija

platuma: 37-36-24N, ilguma: 061-54-05E, Aukštis: 222 m

Dabartinis oras

Ataskaita buvo paskelbta 1 valandą ir 5 minutes, ne 03:00 UTC
Vėjas 6 kt iš Pietų/Pietvakarių
Temperatūra 1°C
Drėgmė 69%
Slėgis 1027 hPa
Matomumas 10 km arba daugiau
nėra debesų žemiau 1500 m ir nėra kamuolinių lietaus debesų

METAR: UTAM 130300Z 20006KT CAVOK 01/M04 Q1027 R88/CLRD70 NOSIG

Laikas: 09:05 (04:05 UTC)

Prognozė

Ataskaita buvo paskelbta 5 valandos ir 35 minutes, ne 22:30 UTC
Prognozė galioja nuo 13 metu 00 UTC su 13 metu 24 UTC
Vėjas 4 kt nuo kintamojo kryptimis
Matomumas: 6000 m
Laikinai
nuo 13 metu 00 UTC su 13 metu 04 UTC
Matomumas: 1500 m
rūkana
Laikinai
nuo 13 metu 04 UTC su 13 metu 09 UTC
Vėjas 10 kt iš Vakarų
Išsisklaidę debesys ne aukštis 5000 ft
Laikinai
nuo 13 metu 09 UTC su 13 metu 15 UTC
Vėjas 12 kt iš Šiaurės Vakarų

TAF: UTAM 122230Z 1300/1324 VRB04KT 6000 NSC TEMPO 1300/1304 1500 BR TEMPO 1304/1309 26010KT SCT050 TEMPO 1309/1315 32012KT

Orai ataskaitas ir orų prognozės (METAR, TAF).

turimą stotys yra geltonos ir raudonos taškus žemėlapyje.

Perkelti pele per norėdami pamatyti stoties vardą.

Tada spustelėkite, norėdami matyti oro stebėjimo ir prognozės.

Norėdami pakeisti žemėlapį: spustelėkite ant žalios mygtukų su juodo kryžiaus žemyn,; žalią mygtuką su brūkšneliu, jei norite nutolinti; arba žalių rodyklių gretimoms žemėlapius.


METAR-TAF: